Hovedside
METAR-TAF:

METAR-TAF

Lufthavner :

Utti lufthavn

Utti, Finland

breddegrad: 60-54N, lengdegrad: 026-56E, høyde over havet: 100 m

Gjeldene værobservasjon

Denne rapporten ble laget for 24 minutter siden, klokken 03:50 UTC
Vind 12 kt fra Øst-nordøst, skiftende mellom Nord og Øst
Temperatur 4°C
Luftfuktighet 87%
Trykk 989 hPa
Sikt 10 km eller mer
Brutte skyer i en høyde av 1200 ft

METAR: EFUT 240350Z 06012KT 010V090 9999 BKN012 04/02 Q0989

Tid: 07:14 (04:14 UTC)

Varsel

Denne rapporten ble laget for 1 time og 39 minutter siden, klokken 02:35 UTC
Varsel gyldig fra 24. klokken 03 UTC til 24. klokken 12 UTC
Vind 8 kt fra Nordøst
Sikt 10 km eller mer
Spredte skyer i en høyde av 800 ft
Brutte skyer i en høyde av 3000 ft
Midlertidig
fra 24. klokken 03 UTC til 24. klokken 08 UTC
Brutte skyer i en høyde av 800 ft

TAF: EFUT 240235Z 2403/2412 04008KT 9999 SCT008 BKN030 TEMPO 2403/2408 BKN008

Værobservasjoner og værvarsel for over 4000 flyplasser (METAR- og TAF-rapporter).

Tilgjengelige stasjoner er representert av de røde og gule prikkene på kartet.

Hold musepekeren over prikken for å se navnet på stasjonen.

Klikk så for å se værobservasjoner og -varsler.

For å forandre kartet kan du klikke på den grønne knappen med svart kryss for å zoome inn, på den grønne knappen med strek for å zoome ut, eller på de grønne pilene for å se tilstøtende kart.


METAR-TAF: